createdAt,value
2023-02-17T00:10:58.193Z,100129.45
2023-02-17T00:14:20.614Z,100127.89
2023-02-17T00:17:12.080Z,100120.08
2023-02-17T00:20:28.774Z,100119.63
2023-02-17T00:40:53.846Z,100130.92
2023-02-17T00:48:32.855Z,100126.08
2023-02-17T01:07:11.257Z,100120.43
2023-02-17T01:16:40.042Z,100089.13
2023-02-17T01:20:41.164Z,100086.66
2023-02-17T01:24:20.393Z,100070.95
2023-02-17T01:40:07.555Z,100052.89
2023-02-17T01:43:43.002Z,100054.98
2023-02-17T01:47:33.291Z,100048.22
2023-02-17T01:51:26.417Z,100042.66
2023-02-17T02:07:45.845Z,100020.66
2023-02-17T02:11:37.459Z,100016.14
2023-02-17T02:15:17.865Z,100012.90
2023-02-17T02:23:03.246Z,100007.12
2023-02-17T02:30:52.202Z,99995.27
2023-02-17T02:35:01.321Z,99996.56
2023-02-17T02:42:51.389Z,99989.74
2023-02-17T02:45:42.759Z,99984.20
2023-02-17T02:58:29.226Z,99965.47
2023-02-17T03:06:33.460Z,99945.48
2023-02-17T03:10:02.851Z,99942.72
2023-02-17T03:17:35.135Z,99946.10
2023-02-17T03:33:20.280Z,99937.83
2023-02-17T03:41:05.746Z,99920.61
2023-02-17T03:53:13.436Z,99911.77
2023-02-17T03:57:01.375Z,99913.75
2023-02-17T04:03:49.004Z,99904.09
2023-02-17T04:07:23.445Z,99900.80
2023-02-17T04:10:29.151Z,99898.46
2023-02-17T04:13:51.319Z,99899.70
2023-02-17T04:16:25.800Z,99895.73
2023-02-17T04:19:47.455Z,99895.93
2023-02-17T04:26:38.734Z,99891.45
2023-02-17T04:33:34.651Z,99887.84
2023-02-17T04:36:45.494Z,99885.07
2023-02-17T04:39:47.886Z,99877.29
2023-02-17T04:46:30.633Z,99874.55
2023-02-17T04:51:53.674Z,99865.00
2023-02-17T04:53:51.480Z,99850.94
2023-02-17T05:02:31.134Z,99836.73
2023-02-17T05:09:46.136Z,99830.52
2023-02-17T05:22:35.442Z,99849.01
2023-02-17T05:54:10.862Z,99841.11
2023-02-17T06:13:27.385Z,99822.40
2023-02-17T06:17:04.336Z,99812.85
2023-02-17T06:47:28.936Z,99802.55
2023-02-17T07:20:29.149Z,99798.73
2023-02-17T07:24:00.689Z,99801.15
2023-02-17T07:31:12.022Z,99799.23
2023-02-17T07:34:27.845Z,99793.75
2023-02-17T07:38:28.413Z,99797.50
2023-02-17T07:41:35.704Z,99790.62
2023-02-17T07:44:17.804Z,99792.42
2023-02-17T07:47:06.489Z,99792.35
2023-02-17T07:50:06.968Z,99788.63
2023-02-17T07:52:51.016Z,99783.15
2023-02-17T07:56:10.301Z,99783.38
2023-02-17T07:59:13.406Z,99776.81
2023-02-17T08:02:52.757Z,99772.51
2023-02-17T08:05:51.817Z,99768.52
2023-02-17T08:08:43.297Z,99761.64
2023-02-17T08:12:09.277Z,99759.44
2023-02-17T08:15:11.968Z,99761.09
2023-02-17T08:17:48.810Z,99764.95
2023-02-17T08:20:34.277Z,99765.27
2023-02-17T08:23:32.600Z,99766.89
2023-02-17T08:26:11.315Z,99763.63
2023-02-17T08:29:19.996Z,99761.55
2023-02-17T08:32:40.705Z,99767.71
2023-02-17T08:35:58.588Z,99763.21
2023-02-17T08:38:56.120Z,99761.65
2023-02-17T08:42:27.489Z,99755.11
2023-02-17T08:45:37.113Z,99756.10
2023-02-17T08:49:17.388Z,99754.96
2023-02-17T08:52:35.150Z,99749.48
2023-02-17T08:55:47.357Z,99749.54
2023-02-17T08:59:46.854Z,99748.73
2023-02-17T09:03:21.839Z,99741.98
2023-02-17T09:10:43.669Z,99734.79
2023-02-17T09:14:36.520Z,99732.80
2023-02-17T09:18:11.927Z,99735.86
2023-02-17T09:21:23.490Z,99727.77
2023-02-17T09:24:28.732Z,99730.36
2023-02-17T09:28:03.716Z,99722.59
2023-02-17T09:31:11.305Z,99725.31
2023-02-17T09:34:18.379Z,99721.09
2023-02-17T09:37:07.531Z,99714.07
2023-02-17T09:40:45.177Z,99708.94
2023-02-17T09:43:29.726Z,99702.92
2023-02-17T09:46:10.727Z,99696.58
2023-02-17T09:48:41.176Z,99698.26
2023-02-17T09:51:44.716Z,99701.68
2023-02-17T09:55:39.023Z,99700.03
2023-02-17T09:58:33.297Z,99695.95
2023-02-17T10:01:21.236Z,99688.38
2023-02-17T10:04:24.340Z,99680.69
2023-02-17T10:07:31.221Z,99680.67
2023-02-17T10:10:19.887Z,99673.05
2023-02-17T10:13:15.575Z,99663.00
2023-02-17T10:16:14.971Z,99654.95
2023-02-17T10:18:58.974Z,99651.16
2023-02-17T10:22:10.971Z,99646.15
2023-02-17T10:25:26.999Z,99637.43
2023-02-17T10:28:26.921Z,99632.09
2023-02-17T10:31:30.726Z,99630.14
2023-02-17T10:34:53.111Z,99623.89
2023-02-17T10:38:17.068Z,99618.63
2023-02-17T10:41:57.693Z,99606.40
2023-02-17T10:44:42.819Z,99600.17
2023-02-17T10:48:21.735Z,99591.10
2023-02-17T10:51:31.303Z,99588.04
2023-02-17T10:54:30.993Z,99582.84
2023-02-17T10:57:21.057Z,99575.63
2023-02-17T11:00:18.603Z,99564.94
2023-02-17T11:03:42.567Z,99553.73
2023-02-17T11:06:58.257Z,99545.13
2023-02-17T11:09:56.491Z,99535.00
2023-02-17T11:13:35.064Z,99529.89
2023-02-17T11:16:07.794Z,99516.08
2023-02-17T11:19:09.160Z,99509.60
2023-02-17T11:22:33.205Z,99506.73
2023-02-17T11:25:48.773Z,99498.89
2023-02-17T11:29:43.820Z,99493.20
2023-02-17T11:32:39.321Z,99485.80
2023-02-17T11:35:51.558Z,99474.07
2023-02-17T11:39:01.618Z,99474.42
2023-02-17T11:42:34.427Z,99476.17
2023-02-17T11:46:03.578Z,99475.84
2023-02-17T11:49:08.069Z,99469.01
2023-02-17T11:52:19.065Z,99460.80
2023-02-17T11:55:15.277Z,99452.42
2023-02-17T11:58:07.046Z,99443.14
2023-02-17T12:00:43.989Z,99430.86
2023-02-17T12:04:18.796Z,99433.27
2023-02-17T12:07:16.602Z,99423.11
2023-02-17T12:10:30.848Z,99424.27
2023-02-17T12:13:57.741Z,99416.23
2023-02-17T12:17:40.966Z,99405.52
2023-02-17T12:21:00.126Z,99395.72
2023-02-17T12:24:21.323Z,99391.85
2023-02-17T12:27:51.913Z,99385.54
2023-02-17T12:31:21.286Z,99373.64
2023-02-17T12:34:21.058Z,99368.00
2023-02-17T12:37:39.887Z,99358.41
2023-02-17T12:40:31.579Z,99348.91
2023-02-17T12:43:54.548Z,99341.02
2023-02-17T12:46:44.756Z,99328.77
2023-02-17T12:49:43.948Z,99326.21
2023-02-17T12:53:22.465Z,99324.08
2023-02-17T12:57:09.265Z,99302.20
2023-02-17T13:00:36.636Z,99284.71
2023-02-17T13:03:39.316Z,99278.74
2023-02-17T13:07:59.197Z,99267.51
2023-02-17T13:14:14.818Z,99247.70
2023-02-17T13:17:46.272Z,99256.55
2023-02-17T13:21:07.114Z,99251.09
2023-02-17T13:24:25.272Z,99249.42
2023-02-17T13:27:44.013Z,99246.57
2023-02-17T13:31:03.336Z,99238.60
2023-02-17T13:33:50.650Z,99229.94
2023-02-17T13:36:32.552Z,99223.55
2023-02-17T13:39:30.158Z,99215.39
2023-02-17T13:42:10.850Z,99211.58
2023-02-17T13:49:18.162Z,99189.92
2023-02-17T13:52:17.797Z,99189.41
2023-02-17T13:55:10.526Z,99184.93
2023-02-17T13:58:32.991Z,99177.30
2023-02-17T14:09:44.911Z,99149.23
2023-02-17T14:12:40.431Z,99149.21
2023-02-17T14:15:31.306Z,99148.33
2023-02-17T14:19:00.622Z,99145.91
2023-02-17T14:21:30.214Z,99132.50
2023-02-17T14:24:52.305Z,99134.87
2023-02-17T14:28:31.142Z,99131.81
2023-02-17T14:31:28.562Z,99125.30
2023-02-17T14:34:34.422Z,99120.10
2023-02-17T14:37:28.284Z,99111.50
2023-02-17T14:40:23.719Z,99109.50
2023-02-17T14:43:47.642Z,99114.09
2023-02-17T14:46:38.579Z,99109.32
2023-02-17T14:49:39.180Z,99111.75
2023-02-17T14:52:37.355Z,99111.93
2023-02-17T14:55:17.630Z,99111.13
2023-02-17T14:57:52.403Z,99107.31
2023-02-17T15:01:05.239Z,99101.18
2023-02-17T15:03:38.649Z,99104.80
2023-02-17T15:06:30.208Z,99094.83
2023-02-17T15:09:28.663Z,99091.71
2023-02-17T15:11:59.864Z,99094.39
2023-02-17T15:14:28.474Z,99089.70
2023-02-17T15:17:11.591Z,99089.36
2023-02-17T15:19:54.101Z,99083.48
2023-02-17T15:22:49.258Z,99081.09
2023-02-17T15:25:22.614Z,99070.23
2023-02-17T15:27:52.343Z,99071.61
2023-02-17T15:30:28.497Z,99073.80
2023-02-17T15:33:03.956Z,99078.13
2023-02-17T15:36:08.223Z,99082.93
2023-02-17T15:38:44.588Z,99080.41
2023-02-17T15:41:26.332Z,99077.49
2023-02-17T15:43:58.696Z,99080.41
2023-02-17T15:46:34.938Z,99081.64
2023-02-17T15:49:06.095Z,99081.29
2023-02-17T15:51:36.633Z,99086.02
2023-02-17T15:54:06.002Z,99085.04
2023-02-17T15:56:43.450Z,99083.56
2023-02-17T15:59:22.882Z,99084.13
2023-02-17T16:01:51.193Z,99082.05
2023-02-17T16:04:21.729Z,99082.80
2023-02-17T16:06:53.093Z,99086.77
2023-02-17T16:09:21.836Z,99086.63
2023-02-17T16:11:53.411Z,99087.40
2023-02-17T16:14:33.701Z,99083.71
2023-02-17T16:17:03.816Z,99086.30
2023-02-17T16:19:34.714Z,99088.02
2023-02-17T16:22:06.379Z,99086.06
2023-02-17T16:24:42.568Z,99083.66
2023-02-17T16:27:26.917Z,99087.50
2023-02-17T16:29:55.804Z,99088.82
2023-02-17T16:32:24.260Z,99100.52
2023-02-17T16:34:52.619Z,99089.98
2023-02-17T16:37:21.778Z,99086.05
2023-02-17T16:39:50.447Z,99080.34
2023-02-17T16:42:26.404Z,99079.96
2023-02-17T16:45:06.174Z,99087.90
2023-02-17T16:47:34.534Z,99082.24
2023-02-17T16:50:05.151Z,99079.80
2023-02-17T16:52:34.467Z,99084.30
2023-02-17T16:55:06.639Z,99078.95
2023-02-17T16:57:35.768Z,99075.52
2023-02-17T17:00:22.776Z,99067.83
2023-02-17T17:03:20.338Z,99054.60
2023-02-17T17:05:51.736Z,99058.30
2023-02-17T17:08:22.035Z,99058.57
2023-02-17T17:10:50.810Z,99066.21
2023-02-17T17:13:28.738Z,99070.63
2023-02-17T17:16:04.353Z,99077.00
2023-02-17T17:19:22.020Z,99091.16
2023-02-17T17:22:19.285Z,99108.62
2023-02-17T17:24:51.091Z,99113.73
2023-02-17T17:27:45.185Z,99116.03
2023-02-17T17:30:33.400Z,99121.85
2023-02-17T17:33:39.671Z,99114.30
2023-02-17T17:36:38.548Z,99111.55
2023-02-17T17:39:35.869Z,99104.26
2023-02-17T17:42:10.112Z,99105.47
2023-02-17T17:44:39.314Z,99106.95
2023-02-17T17:47:29.328Z,99111.55
2023-02-17T17:49:59.147Z,99107.50
2023-02-17T17:52:32.187Z,99107.95
2023-02-17T17:55:08.598Z,99104.11
2023-02-17T17:57:42.861Z,99111.06
2023-02-17T18:00:26.514Z,99111.46
2023-02-17T18:03:05.306Z,99108.02
2023-02-17T18:05:48.131Z,99128.27
2023-02-17T18:08:17.851Z,99125.27
2023-02-17T18:10:47.193Z,99124.08
2023-02-17T18:13:16.912Z,99119.46
2023-02-17T18:15:46.658Z,99127.45
2023-02-17T18:18:20.913Z,99127.31
2023-02-17T18:20:49.343Z,99124.43
2023-02-17T18:23:45.745Z,99123.39
2023-02-17T18:26:25.515Z,99129.72
2023-02-17T18:29:23.302Z,99124.37
2023-02-17T18:32:10.507Z,99146.69
2023-02-17T18:35:01.878Z,99148.52
2023-02-17T18:37:41.382Z,99154.85
2023-02-17T18:40:26.783Z,99160.02
2023-02-17T18:43:01.718Z,99164.08
2023-02-17T18:45:54.088Z,99160.42
2023-02-17T18:48:32.061Z,99156.99
2023-02-17T18:51:06.813Z,99151.21
2023-02-17T18:53:39.187Z,99166.40
2023-02-17T18:56:21.269Z,99157.56
2023-02-17T18:58:55.529Z,99152.34
2023-02-17T19:01:36.275Z,99151.55
2023-02-17T19:04:06.253Z,99163.61
2023-02-17T19:06:37.641Z,99152.95
2023-02-17T19:09:54.708Z,99152.98
2023-02-17T19:12:28.497Z,99160.14
2023-02-17T19:15:21.085Z,99164.52
2023-02-17T19:18:13.148Z,99187.55
2023-02-17T19:20:44.382Z,99177.00
2023-02-17T19:23:13.215Z,99177.07
2023-02-17T19:25:49.611Z,99182.25
2023-02-17T19:28:21.597Z,99179.23
2023-02-17T19:31:09.278Z,99173.30
2023-02-17T19:34:19.270Z,99176.38
2023-02-17T19:36:51.130Z,99169.69
2023-02-17T19:39:22.902Z,99176.77
2023-02-17T19:41:54.410Z,99184.77
2023-02-17T19:44:31.274Z,99185.08
2023-02-17T19:47:00.089Z,99190.34
2023-02-17T19:49:28.858Z,99198.04
2023-02-17T19:52:02.582Z,99201.95
2023-02-17T19:54:41.121Z,99203.58
2023-02-17T19:57:18.749Z,99215.95
2023-02-17T19:59:47.347Z,99209.43
2023-02-17T20:02:39.188Z,99207.83
2023-02-17T20:05:10.575Z,99213.53
2023-02-17T20:08:04.809Z,99217.63
2023-02-17T20:10:33.884Z,99215.10
2023-02-17T20:13:14.860Z,99215.32
2023-02-17T20:15:49.450Z,99217.88
2023-02-17T20:18:24.076Z,99214.64
2023-02-17T20:21:02.397Z,99221.84
2023-02-17T20:23:31.856Z,99242.13
2023-02-17T20:26:13.304Z,99249.13
2023-02-17T20:28:45.155Z,99251.58
2023-02-17T20:31:20.573Z,99247.19
2023-02-17T20:33:53.048Z,99252.89
2023-02-17T20:36:44.592Z,99247.95
2023-02-17T20:39:16.967Z,99256.56
2023-02-17T20:41:45.979Z,99258.41
2023-02-17T20:44:18.446Z,99258.85
2023-02-17T20:46:50.385Z,99261.27
2023-02-17T20:49:21.924Z,99263.06
2023-02-17T20:51:58.742Z,99276.80
2023-02-17T20:59:25.257Z,99281.65
2023-02-17T21:02:00.166Z,99291.05
2023-02-17T21:04:34.656Z,99290.95
2023-02-17T21:07:06.630Z,99295.88
2023-02-17T21:10:18.399Z,99302.44
2023-02-17T21:13:50.860Z,99315.41
2023-02-17T21:16:46.566Z,99312.28
2023-02-17T21:19:47.292Z,99315.41
2023-02-17T21:34:37.494Z,99308.52
2023-02-17T21:37:47.821Z,99318.01
2023-02-17T21:41:44.037Z,99306.54
2023-02-17T21:45:04.670Z,99312.69
2023-02-17T21:48:59.209Z,99324.33
2023-02-17T21:52:34.577Z,99328.84
2023-02-17T21:55:32.345Z,99335.45
2023-02-17T21:58:43.387Z,99333.21
2023-02-17T22:01:34.324Z,99343.92
2023-02-17T22:05:40.256Z,99346.20
2023-02-17T22:08:35.143Z,99349.22
2023-02-17T22:11:27.401Z,99354.76
2023-02-17T22:14:30.454Z,99361.27
2023-02-17T22:17:11.791Z,99361.77
2023-02-17T22:19:40.934Z,99357.72
2023-02-17T22:22:12.583Z,99360.23
2023-02-17T22:24:53.115Z,99366.98
2023-02-17T22:27:45.979Z,99370.84
2023-02-17T22:30:37.411Z,99378.08
2023-02-17T22:33:17.226Z,99376.34
2023-02-17T22:36:02.208Z,99376.91
2023-02-17T22:38:48.810Z,99375.48
2023-02-17T22:41:25.794Z,99384.42
2023-02-17T22:44:10.652Z,99379.98
2023-02-17T22:46:45.175Z,99378.77
2023-02-17T22:49:19.282Z,99388.55
2023-02-17T22:51:48.009Z,99390.08
2023-02-17T22:54:42.001Z,99394.17
2023-02-17T22:57:11.027Z,99394.55
2023-02-17T22:59:49.328Z,99396.16
2023-02-17T23:02:25.106Z,99407.15
2023-02-17T23:04:58.635Z,99412.63
2023-02-17T23:07:30.514Z,99415.27
2023-02-17T23:10:01.901Z,99415.98
2023-02-17T23:12:44.037Z,99427.69
2023-02-17T23:15:18.553Z,99425.44
2023-02-17T23:18:14.722Z,99434.88
2023-02-17T23:21:02.542Z,99442.08
2023-02-17T23:23:59.881Z,99443.58
2023-02-17T23:26:49.462Z,99446.96
2023-02-17T23:29:20.860Z,99461.44
2023-02-17T23:31:55.899Z,99461.12
2023-02-17T23:34:31.889Z,99460.48
2023-02-17T23:37:16.703Z,99466.77
2023-02-17T23:39:48.418Z,99477.52
2023-02-17T23:42:22.824Z,99474.07
2023-02-17T23:44:54.931Z,99478.54
2023-02-17T23:47:43.344Z,99490.34
2023-02-17T23:50:16.967Z,99494.71
2023-02-17T23:52:45.873Z,99483.53
2023-02-17T23:55:29.776Z,99492.61
2023-02-17T23:58:08.779Z,99494.39
